Bokoro Airport


Codes: FTTK/BKR
Name: Bokoro Airport
City: Bokoro
Country: Chad
Elevation: 984 ft.

Photos at Bokoro Airport


   Photos courtesy of SpottingLog. You can add your own sightings and photos by signing up for a free trial today.



No photos found.

Weather at Bokoro Airport


Time (UTC)DescriptionTempratureWindCloud coverageVisibilityPressureHumidity
17-Jun-2024 06:00Overcast Clouds27°C11 mph, SW100%10000m1009hPa58%
17-Jun-2024 09:00Overcast Clouds30°C11 mph, SW98%10000m1010hPa47%
17-Jun-2024 12:00Broken Clouds36°C4 mph, SW84%10000m1009hPa30%
17-Jun-2024 15:00Clear Sky37°C2 mph, W3%10000m1007hPa27%
17-Jun-2024 18:00Clear Sky36°C7 mph, S7%10000m1007hPa31%
17-Jun-2024 21:00Light Rain34°C7 mph, SW25%10000m1008hPa35%
18-Jun-2024 00:00Scattered Clouds32°C9 mph, SW46%10000m1007hPa41%
18-Jun-2024 03:00Broken Clouds30°C11 mph, S73%10000m1008hPa49%
18-Jun-2024 06:00Broken Clouds31°C9 mph, SW72%10000m1009hPa46%
18-Jun-2024 09:00Overcast Clouds35°C9 mph, SW99%10000m1010hPa36%
18-Jun-2024 12:00Overcast Clouds37°C7 mph, SW99%10000m1008hPa31%
18-Jun-2024 15:00Broken Clouds38°C2 mph, SW75%10000m1007hPa28%
18-Jun-2024 18:00Broken Clouds37°C7 mph, S57%10000m1006hPa31%
18-Jun-2024 21:00Light Rain32°C11 mph, SE92%10000m1008hPa40%
19-Jun-2024 00:00Overcast Clouds33°C11 mph, S95%10000m1006hPa41%
19-Jun-2024 03:00Light Rain30°C13 mph, S100%10000m1007hPa47%
19-Jun-2024 06:00Overcast Clouds30°C16 mph, S93%10000m1008hPa50%
19-Jun-2024 09:00Overcast Clouds35°C11 mph, SW94%10000m1008hPa35%
19-Jun-2024 12:00Overcast Clouds39°C4 mph, S97%10000m1006hPa24%
19-Jun-2024 15:00Overcast Clouds40°C2 mph, E96%10000m1005hPa21%
19-Jun-2024 18:00Light Rain37°C7 mph, SE94%10000m1006hPa26%
19-Jun-2024 21:00Overcast Clouds32°C7 mph, W86%10000m1008hPa42%
20-Jun-2024 00:00Overcast Clouds31°C7 mph, SW87%10000m1008hPa44%
20-Jun-2024 03:00Overcast Clouds31°C9 mph, S99%10000m1008hPa47%
20-Jun-2024 06:00Overcast Clouds32°C13 mph, SE100%10000m1010hPa46%
20-Jun-2024 09:00Overcast Clouds37°C11 mph, SW100%10000m1009hPa32%
20-Jun-2024 12:00Overcast Clouds40°C9 mph, SE97%10000m1006hPa21%
20-Jun-2024 15:00Broken Clouds40°C16 mph, SE76%10000m1004hPa21%
20-Jun-2024 18:00Light Rain33°C11 mph, N69%10000m1007hPa37%
20-Jun-2024 21:00Light Rain30°C18 mph, N73%10000m1010hPa45%
21-Jun-2024 00:00Broken Clouds30°C2 mph, N77%10000m1009hPa46%
21-Jun-2024 03:00Broken Clouds29°C11 mph, S67%10000m1009hPa49%
21-Jun-2024 06:00Broken Clouds31°C9 mph, S78%10000m1009hPa43%
21-Jun-2024 09:00Broken Clouds35°C13 mph, S58%10000m1010hPa33%
21-Jun-2024 12:00Broken Clouds38°C7 mph, S71%10000m1008hPa27%
21-Jun-2024 15:00Few Clouds40°C4 mph, NW18%10000m1006hPa23%
21-Jun-2024 18:00Light Rain38°C7 mph, NW32%10000m1006hPa28%
21-Jun-2024 21:00Light Rain36°C4 mph, NW21%10000m1008hPa31%
22-Jun-2024 00:00Light Rain34°C7 mph, S31%10000m1007hPa36%
22-Jun-2024 03:00Light Rain31°C2 mph, NE72%10000m1008hPa46%